createdAt,value
2022-08-04T00:00:05.537Z,21.4
2022-08-04T00:15:02.819Z,21.4
2022-08-04T00:30:06.414Z,21.3
2022-08-04T00:45:03.149Z,21.3
2022-08-04T01:00:06.311Z,21.2
2022-08-04T01:15:02.561Z,21.2
2022-08-04T01:30:04.846Z,21.1
2022-08-04T01:45:02.533Z,21.0
2022-08-04T02:00:04.947Z,21
2022-08-04T02:15:02.919Z,20.9
2022-08-04T02:30:05.057Z,20.9
2022-08-04T02:45:03.700Z,20.8
2022-08-04T03:00:07.764Z,20.8
2022-08-04T03:15:03.738Z,20.7
2022-08-04T03:30:05.217Z,20.6
2022-08-04T03:45:03.250Z,20.6
2022-08-04T04:00:03.836Z,20.5
2022-08-04T04:15:02.454Z,20.5
2022-08-04T04:30:05.941Z,20.5
2022-08-04T04:45:03.000Z,20.4
2022-08-04T05:00:06.606Z,20.4
2022-08-04T05:15:04.057Z,20.4
2022-08-04T05:30:05.541Z,20.4
2022-08-04T05:45:03.855Z,20.5
2022-08-04T06:00:25.475Z,20.7
2022-08-04T06:15:03.938Z,20.8
2022-08-04T06:30:08.503Z,21.0
2022-08-04T06:45:03.771Z,21.1
2022-08-04T07:00:06.359Z,21.2
2022-08-04T07:15:02.551Z,21.3
2022-08-04T07:30:04.379Z,21.4
2022-08-04T07:45:03.572Z,21.5
2022-08-04T08:00:06.317Z,21.6
2022-08-04T08:15:04.326Z,21.7
2022-08-04T08:30:07.516Z,21.8
2022-08-04T08:45:02.619Z,21.9
2022-08-04T09:00:06.784Z,21.9
2022-08-04T09:15:02.717Z,22
2022-08-04T09:30:05.240Z,22.1
2022-08-04T09:45:06.047Z,22.1
2022-08-04T10:00:07.569Z,22.2
2022-08-04T10:15:03.321Z,22.2
2022-08-04T10:30:07.398Z,22.2
2022-08-04T10:45:04.139Z,22.3
2022-08-04T11:00:07.494Z,22.3
2022-08-04T11:15:03.887Z,22.5
2022-08-04T11:30:06.029Z,22.5
2022-08-04T11:45:02.925Z,22.6
2022-08-04T12:00:07.343Z,22.7
2022-08-04T12:15:02.668Z,22.8
2022-08-04T12:30:57.635Z,22.9
2022-08-04T12:45:03.841Z,23.0
2022-08-04T13:00:07.136Z,23
2022-08-04T13:15:08.829Z,23.1
2022-08-04T13:30:09.202Z,23.2
2022-08-04T13:45:03.341Z,23.3
2022-08-04T14:00:08.356Z,23.3
2022-08-04T14:15:04.482Z,23.4
2022-08-04T14:30:07.923Z,23.5
2022-08-04T14:45:04.104Z,23.5
2022-08-04T15:00:11.246Z,23.5
2022-08-04T15:15:20.352Z,23.5
2022-08-04T15:30:07.196Z,23.5
2022-08-04T15:45:03.120Z,23.6
2022-08-04T16:00:14.376Z,23.6
2022-08-04T16:15:02.987Z,23.6
2022-08-04T16:30:05.111Z,23.7
2022-08-04T16:45:03.937Z,23.8
2022-08-04T17:00:06.416Z,23.9
2022-08-04T17:15:03.254Z,24.0
2022-08-04T17:30:06.113Z,24.1
2022-08-04T17:45:19.313Z,24.1
2022-08-04T18:00:08.488Z,24.2
2022-08-04T18:15:04.302Z,24.2
2022-08-04T18:30:15.780Z,24.1
2022-08-04T18:45:03.019Z,24.1
2022-08-04T19:00:07.010Z,23.9
2022-08-04T19:30:05.516Z,23.6
2022-08-04T19:45:04.353Z,23.5
2022-08-04T20:00:08.952Z,23.3
2022-08-04T20:15:03.763Z,23.3
2022-08-04T20:30:13.941Z,23.1
2022-08-04T20:45:02.927Z,23.1
2022-08-04T21:00:05.852Z,22.9
2022-08-04T21:15:13.116Z,22.9
2022-08-04T21:30:03.892Z,22.8
2022-08-04T21:45:03.466Z,22.7
2022-08-04T22:00:05.920Z,22.6
2022-08-04T22:15:22.690Z,22.5
2022-08-04T22:30:08.135Z,22.4
2022-08-04T22:45:02.476Z,22.4
2022-08-04T23:00:05.003Z,22.3
2022-08-04T23:15:02.230Z,22.3
2022-08-04T23:30:05.496Z,22.2
2022-08-04T23:45:04.078Z,22.1
